createdAt,value
2022-08-07T00:01:43.180Z,101814.47
2022-08-07T00:03:53.096Z,101812.94
2022-08-07T00:06:29.569Z,101809.78
2022-08-07T00:09:17.169Z,101808.19
2022-08-07T00:11:54.242Z,101803.75
2022-08-07T00:14:30.107Z,101801.84
2022-08-07T00:16:56.999Z,101797.59
2022-08-07T00:19:25.943Z,101802.06
2022-08-07T00:22:02.370Z,101798.03
2022-08-07T00:24:31.582Z,101791.28
2022-08-07T00:27:06.264Z,101787.91
2022-08-07T00:29:37.121Z,101788.94
2022-08-07T00:32:04.561Z,101785.50
2022-08-07T00:34:32.729Z,101781.34
2022-08-07T00:37:02.276Z,101768.06
2022-08-07T00:39:32.498Z,101781.78
2022-08-07T00:42:02.332Z,101778.63
2022-08-07T00:44:33.077Z,101758.56
2022-08-07T00:47:01.828Z,101764.13
2022-08-07T00:50:19.215Z,101777.75
2022-08-07T00:52:17.604Z,101743.31
2022-08-07T00:54:47.176Z,101772.06
2022-08-07T00:57:21.992Z,101748.50
2022-08-07T00:59:49.263Z,101767.41
2022-08-07T01:02:28.854Z,101763.28
2022-08-07T01:04:58.791Z,101762.34
2022-08-07T01:07:27.801Z,101765.19
2022-08-07T01:10:06.537Z,101757.56
2022-08-07T01:12:44.767Z,101760.63
2022-08-07T01:15:20.633Z,101766.19
2022-08-07T01:17:48.802Z,101758.91
2022-08-07T01:20:18.210Z,101739.84
2022-08-07T01:23:00.466Z,101762.91
2022-08-07T01:25:54.810Z,101756.53
2022-08-07T01:28:21.808Z,101754.28
2022-08-07T01:30:52.094Z,101762.41
2022-08-07T01:33:20.349Z,101759.25
2022-08-07T01:35:54.551Z,101760.38
2022-08-07T01:38:36.710Z,101757.28
2022-08-07T01:41:13.250Z,101755.16
2022-08-07T01:43:54.551Z,101763.34
2022-08-07T01:46:21.543Z,101760.84
2022-08-07T01:48:48.872Z,101754.59
2022-08-07T01:52:01.054Z,101760.28
2022-08-07T01:54:33.111Z,101751.38
2022-08-07T01:57:06.870Z,101766.16
2022-08-07T01:59:42.210Z,101765.38
2022-08-07T02:02:32.925Z,101764.66
2022-08-07T02:05:15.770Z,101764.00
2022-08-07T02:08:03.400Z,101757.31
2022-08-07T02:10:42.279Z,101761.28
2022-08-07T02:13:13.095Z,101759.72
2022-08-07T02:15:50.277Z,101759.03
2022-08-07T02:18:21.965Z,101755.94
2022-08-07T02:20:57.376Z,101766.78
2022-08-07T02:23:25.851Z,101756.53
2022-08-07T02:26:26.623Z,101753.34
2022-08-07T02:28:45.545Z,101754.38
2022-08-07T02:31:28.726Z,101757.00
2022-08-07T02:34:03.508Z,101746.66
2022-08-07T02:36:38.028Z,101754.94
2022-08-07T02:39:17.176Z,101757.94
2022-08-07T02:42:02.755Z,101755.50
2022-08-07T02:44:34.492Z,101760.94
2022-08-07T02:47:05.620Z,101761.22
2022-08-07T02:49:55.923Z,101753.53
2022-08-07T02:52:34.443Z,101754.75
2022-08-07T02:55:27.893Z,101758.50
2022-08-07T02:58:03.531Z,101749.66
2022-08-07T03:00:34.143Z,101752.50
2022-08-07T03:03:05.866Z,101751.81
2022-08-07T03:05:37.114Z,101750.88
2022-08-07T03:08:09.519Z,101737.72
2022-08-07T03:10:46.690Z,101747.56
2022-08-07T03:13:19.285Z,101752.28
2022-08-07T03:15:54.125Z,101740.38
2022-08-07T03:18:34.844Z,101748.19
2022-08-07T03:21:05.051Z,101749.31
2022-08-07T03:24:18.219Z,101736.13
2022-08-07T03:26:29.882Z,101751.47
2022-08-07T03:29:00.651Z,101748.28
2022-08-07T03:31:42.561Z,101745.72
2022-08-07T03:34:18.712Z,101751.84
2022-08-07T03:36:52.832Z,101743.19
2022-08-07T03:39:59.491Z,101737.19
2022-08-07T03:42:11.854Z,101745.25
2022-08-07T03:44:42.001Z,101741.97
2022-08-07T03:47:14.455Z,101744.66
2022-08-07T03:49:47.648Z,101739.50
2022-08-07T03:52:22.518Z,101732.53
2022-08-07T03:54:54.235Z,101748.50
2022-08-07T03:58:33.045Z,101736.00
2022-08-07T04:00:15.072Z,101750.38
2022-08-07T04:02:49.493Z,101754.13
2022-08-07T04:05:41.959Z,101750.81
2022-08-07T04:08:18.657Z,101755.13
2022-08-07T04:10:54.649Z,101722.44
2022-08-07T04:14:09.981Z,101747.34
2022-08-07T04:16:31.576Z,101743.03
2022-08-07T04:19:04.319Z,101740.41
2022-08-07T04:21:58.775Z,101701.44
2022-08-07T04:24:33.987Z,101745.75
2022-08-07T04:27:04.956Z,101746.59
2022-08-07T04:29:48.956Z,101749.13
2022-08-07T04:32:33.873Z,101748.00
2022-08-07T04:35:01.889Z,101754.13
2022-08-07T04:37:52.705Z,101754.50
2022-08-07T04:40:18.114Z,101746.38
2022-08-07T04:42:46.610Z,101748.19
2022-08-07T04:45:44.514Z,101752.13
2022-08-07T04:48:12.948Z,101751.81
2022-08-07T04:50:45.037Z,101754.53
2022-08-07T04:53:40.286Z,101753.91
2022-08-07T04:58:09.995Z,101757.00
2022-08-07T05:00:11.605Z,101765.66
2022-08-07T05:02:05.987Z,101767.25
2022-08-07T05:04:47.103Z,101751.09
2022-08-07T05:07:28.999Z,101756.38
2022-08-07T05:10:08.630Z,101771.16
2022-08-07T05:12:52.831Z,101776.25
2022-08-07T05:15:26.636Z,101784.91
2022-08-07T05:18:00.740Z,101773.63
2022-08-07T05:20:37.795Z,101769.28
2022-08-07T05:23:15.637Z,101774.16
2022-08-07T05:26:13.492Z,101764.97
2022-08-07T05:28:35.419Z,101782.72
2022-08-07T05:31:03.914Z,101789.50
2022-08-07T05:33:35.637Z,101784.56
2022-08-07T05:36:12.279Z,101784.16
2022-08-07T05:39:00.201Z,101776.91
2022-08-07T05:42:02.238Z,101783.34
2022-08-07T05:44:18.893Z,101787.19
2022-08-07T05:46:57.376Z,101787.72
2022-08-07T05:49:27.964Z,101779.47
2022-08-07T05:52:11.492Z,101784.19
2022-08-07T05:54:53.173Z,101790.63
2022-08-07T05:57:21.953Z,101790.97
2022-08-07T05:59:57.576Z,101790.53
2022-08-07T06:02:31.706Z,101768.88
2022-08-07T06:05:07.088Z,101781.44
2022-08-07T06:08:13.921Z,101790.44
2022-08-07T06:10:25.365Z,101793.19
2022-08-07T06:12:53.551Z,101784.72
2022-08-07T06:15:22.760Z,101785.44
2022-08-07T06:18:12.181Z,101772.13
2022-08-07T06:20:50.276Z,101795.84
2022-08-07T06:24:37.419Z,101803.63
2022-08-07T06:26:16.792Z,101809.00
2022-08-07T06:28:52.932Z,101800.06
2022-08-07T06:31:21.250Z,101805.09
2022-08-07T06:34:05.239Z,101802.25
2022-08-07T06:36:35.270Z,101796.91
2022-08-07T06:40:17.800Z,101795.41
2022-08-07T06:42:02.156Z,101789.53
2022-08-07T06:44:57.346Z,101782.34
2022-08-07T06:47:26.876Z,101781.00
2022-08-07T06:49:58.741Z,101777.88
2022-08-07T06:52:36.597Z,101776.44
2022-08-07T06:55:31.422Z,101767.50
2022-08-07T06:58:02.223Z,101766.63
2022-08-07T07:00:37.250Z,101762.97
2022-08-07T07:03:10.839Z,101761.00
2022-08-07T07:06:02.706Z,101762.88
2022-08-07T07:08:29.612Z,101764.72
2022-08-07T07:11:00.870Z,101731.41
2022-08-07T07:13:55.934Z,101763.94
2022-08-07T07:16:27.549Z,101763.94
2022-08-07T07:19:11.178Z,101759.97
2022-08-07T07:22:05.309Z,101735.50
2022-08-07T07:24:37.174Z,101740.91
2022-08-07T07:27:07.719Z,101758.44
2022-08-07T07:30:08.617Z,101752.88
2022-08-07T07:32:33.753Z,101750.38
2022-08-07T07:35:03.837Z,101752.53
2022-08-07T07:37:47.517Z,101749.31
2022-08-07T07:40:25.241Z,101745.97
2022-08-07T07:42:57.498Z,101740.44
2022-08-07T07:46:36.787Z,101724.06
2022-08-07T07:48:24.046Z,101736.16
2022-08-07T07:51:03.300Z,101733.34
2022-08-07T07:53:43.000Z,101734.53
2022-08-07T07:56:30.545Z,101728.16
2022-08-07T07:59:01.969Z,101731.72
2022-08-07T08:02:02.170Z,101730.94
2022-08-07T08:04:18.314Z,101725.75
2022-08-07T08:06:50.908Z,101723.22
2022-08-07T08:09:22.952Z,101727.78
2022-08-07T08:12:02.487Z,101717.22
2022-08-07T08:14:36.209Z,101718.03
2022-08-07T08:17:55.935Z,101712.28
2022-08-07T08:20:22.880Z,101718.91
2022-08-07T08:22:55.675Z,101710.03
2022-08-07T08:25:42.890Z,101708.41
2022-08-07T08:28:16.830Z,101711.19
2022-08-07T08:30:55.689Z,101705.38
2022-08-07T08:33:24.275Z,101697.69
2022-08-07T08:35:57.558Z,101707.66
2022-08-07T08:38:29.961Z,101706.16
2022-08-07T08:41:08.041Z,101698.97
2022-08-07T08:43:55.909Z,101697.78
2022-08-07T08:46:36.523Z,101689.72
2022-08-07T08:49:10.195Z,101689.03
2022-08-07T08:52:13.075Z,101692.72
2022-08-07T08:54:41.427Z,101689.53
2022-08-07T08:57:13.960Z,101685.09
2022-08-07T08:59:50.196Z,101675.97
2022-08-07T09:02:35.275Z,101678.59
2022-08-07T09:05:21.546Z,101674.81
2022-08-07T09:08:02.555Z,101669.00
2022-08-07T09:10:38.983Z,101665.31
2022-08-07T09:13:16.851Z,101666.75
2022-08-07T09:16:25.762Z,101659.34
2022-08-07T09:19:03.459Z,101658.38
2022-08-07T09:22:09.667Z,101649.50
2022-08-07T09:24:55.395Z,101670.00
2022-08-07T09:27:54.554Z,101660.63
2022-08-07T09:30:25.549Z,101663.16
2022-08-07T09:33:16.766Z,101646.94
2022-08-07T09:36:02.738Z,101650.91
2022-08-07T09:38:42.537Z,101648.88
2022-08-07T09:41:28.045Z,101644.84
2022-08-07T09:44:19.333Z,101643.66
2022-08-07T09:47:50.138Z,101627.28
2022-08-07T09:50:18.450Z,101634.81
2022-08-07T09:52:51.929Z,101627.19
2022-08-07T09:55:29.554Z,101627.34
2022-08-07T09:58:51.363Z,101621.31
2022-08-07T10:01:51.302Z,101616.44
2022-08-07T10:04:33.553Z,101605.84
2022-08-07T10:07:52.548Z,101612.03
2022-08-07T10:10:30.340Z,101577.81
2022-08-07T10:14:00.790Z,101600.66
2022-08-07T10:16:37.023Z,101592.06
2022-08-07T10:19:51.397Z,101596.41
2022-08-07T10:22:53.214Z,101588.25
2022-08-07T10:25:42.084Z,101589.63
2022-08-07T10:28:40.180Z,101589.53
2022-08-07T10:31:31.489Z,101593.63
2022-08-07T10:34:27.308Z,101585.22
2022-08-07T10:37:12.763Z,101571.44
2022-08-07T10:40:03.322Z,101582.75
2022-08-07T10:42:39.997Z,101573.66
2022-08-07T10:45:17.147Z,101568.28
2022-08-07T10:48:02.782Z,101566.06
2022-08-07T10:50:35.198Z,101582.50
2022-08-07T10:53:09.061Z,101564.66
2022-08-07T10:55:48.923Z,101561.38
2022-08-07T10:58:36.425Z,101560.75
2022-08-07T11:01:51.979Z,101556.84
2022-08-07T11:04:37.737Z,101543.50
2022-08-07T11:07:24.762Z,101549.69
2022-08-07T11:10:09.159Z,101557.44
2022-08-07T11:12:43.396Z,101555.16
2022-08-07T11:15:17.893Z,101541.16
2022-08-07T11:17:49.537Z,101544.38
2022-08-07T11:20:22.541Z,101537.50
2022-08-07T11:22:58.134Z,101529.00
2022-08-07T11:25:36.072Z,101536.03
2022-08-07T11:28:15.577Z,101521.91
2022-08-07T11:30:55.741Z,101524.38
2022-08-07T11:33:58.428Z,101519.81
2022-08-07T11:36:30.783Z,101518.75
2022-08-07T11:39:09.428Z,101515.66
2022-08-07T11:42:01.795Z,101508.16
2022-08-07T11:44:39.320Z,101486.31
2022-08-07T11:47:39.221Z,101508.50
2022-08-07T11:50:32.472Z,101497.38
2022-08-07T11:53:09.903Z,101505.03
2022-08-07T11:56:09.336Z,101486.25
2022-08-07T11:58:53.950Z,101490.72
2022-08-07T12:01:59.628Z,101491.28
2022-08-07T12:04:56.834Z,101506.34
2022-08-07T12:07:27.243Z,101490.16
2022-08-07T12:09:56.962Z,101496.03
2022-08-07T12:12:27.689Z,101496.25
2022-08-07T12:15:01.957Z,101487.25
2022-08-07T12:17:37.234Z,101488.13
2022-08-07T12:20:29.687Z,101489.53
2022-08-07T12:24:06.305Z,101486.91
2022-08-07T12:26:29.984Z,101483.50
2022-08-07T12:29:07.186Z,101481.06
2022-08-07T12:31:52.779Z,101474.25
2022-08-07T12:34:29.015Z,101462.66
2022-08-07T12:36:59.302Z,101455.91
2022-08-07T12:39:44.087Z,101469.25
2022-08-07T12:42:27.116Z,101453.47
2022-08-07T12:44:58.401Z,101460.56
2022-08-07T12:47:32.676Z,101469.53
2022-08-07T12:50:34.283Z,101461.16
2022-08-07T12:53:17.464Z,101456.03
2022-08-07T12:56:02.905Z,101457.56
2022-08-07T12:58:35.668Z,101448.59
2022-08-07T13:01:08.549Z,101459.16
2022-08-07T13:04:06.581Z,101448.72
2022-08-07T13:07:00.126Z,101451.06
2022-08-07T13:10:20.869Z,101450.03
2022-08-07T13:12:43.798Z,101434.78
2022-08-07T13:15:29.679Z,101433.81
2022-08-07T13:18:26.050Z,101435.69
2022-08-07T13:20:59.020Z,101431.19
2022-08-07T13:24:02.258Z,101425.09
2022-08-07T13:26:30.243Z,101437.47
2022-08-07T13:29:10.107Z,101436.63
2022-08-07T13:31:54.850Z,101424.81
2022-08-07T13:34:35.547Z,101415.19
2022-08-07T13:37:10.973Z,101420.13
2022-08-07T13:40:35.128Z,101412.72
2022-08-07T13:42:58.278Z,101408.78
2022-08-07T13:46:23.975Z,101402.84
2022-08-07T13:48:20.603Z,101387.69
2022-08-07T13:51:01.418Z,101393.75
2022-08-07T13:53:55.062Z,101403.47
2022-08-07T13:56:20.054Z,101396.38
2022-08-07T13:59:12.060Z,101397.09
2022-08-07T14:01:59.259Z,101400.25
2022-08-07T14:04:35.576Z,101398.59
2022-08-07T14:07:09.537Z,101393.44
2022-08-07T14:10:17.347Z,101386.19
2022-08-07T14:12:30.689Z,101390.50
2022-08-07T14:15:04.969Z,101383.38
2022-08-07T14:18:23.706Z,101390.47
2022-08-07T14:20:42.284Z,101379.19
2022-08-07T14:23:17.988Z,101374.47
2022-08-07T14:26:04.300Z,101368.41
2022-08-07T14:28:57.416Z,101366.34
2022-08-07T14:31:24.318Z,101370.13
2022-08-07T14:33:52.787Z,101360.78
2022-08-07T14:36:20.968Z,101345.50
2022-08-07T14:38:52.403Z,101349.53
2022-08-07T14:44:20.001Z,101353.44
2022-08-07T14:47:08.401Z,101363.72
2022-08-07T14:49:56.611Z,101357.47
2022-08-07T14:52:31.230Z,101329.94
2022-08-07T14:55:00.349Z,101346.88
2022-08-07T14:57:58.558Z,101348.25
2022-08-07T15:00:29.655Z,101341.56
2022-08-07T15:03:18.866Z,101336.47
2022-08-07T15:05:54.155Z,101340.66
2022-08-07T15:08:32.260Z,101341.34
2022-08-07T15:11:02.658Z,101327.25
2022-08-07T15:13:35.918Z,101331.59
2022-08-07T15:16:11.209Z,101294.59
2022-08-07T15:18:43.941Z,101333.06
2022-08-07T15:25:14.053Z,101337.44
2022-08-07T15:26:57.416Z,101332.50
2022-08-07T15:30:08.586Z,101332.78
2022-08-07T15:32:39.965Z,101331.00
2022-08-07T15:38:30.071Z,101325.69
2022-08-07T15:41:24.382Z,101322.13
2022-08-07T15:43:56.527Z,101305.78
2022-08-07T15:46:31.222Z,101307.44
2022-08-07T15:49:12.868Z,101314.28
2022-08-07T15:54:27.297Z,101311.88
2022-08-07T15:56:59.279Z,101324.19
2022-08-07T15:59:39.594Z,101308.00
2022-08-07T16:02:22.282Z,101303.31
2022-08-07T16:04:55.987Z,101305.53
2022-08-07T16:08:29.097Z,101300.63
2022-08-07T16:10:20.550Z,101292.63
2022-08-07T16:13:05.687Z,101304.97
2022-08-07T16:15:57.345Z,101296.66
2022-08-07T16:18:50.842Z,101304.09
2022-08-07T16:22:03.227Z,101302.13
2022-08-07T16:24:34.548Z,101296.88
2022-08-07T16:27:17.843Z,101289.72
2022-08-07T16:30:29.279Z,101288.09
2022-08-07T16:33:00.631Z,101285.47
2022-08-07T16:35:59.710Z,101291.13
2022-08-07T16:38:59.853Z,101291.72
2022-08-07T16:41:41.786Z,101292.78
2022-08-07T16:45:19.109Z,101282.19
2022-08-07T16:47:56.812Z,101287.59
2022-08-07T16:51:20.498Z,101286.84
2022-08-07T16:53:57.197Z,101282.63
2022-08-07T16:56:48.763Z,101283.63
2022-08-07T16:59:26.295Z,101293.97
2022-08-07T17:02:51.343Z,101292.94
2022-08-07T17:06:02.139Z,101288.25
2022-08-07T17:08:19.418Z,101294.25
2022-08-07T17:10:56.279Z,101294.03
2022-08-07T17:14:19.333Z,101291.13
2022-08-07T17:16:44.538Z,101293.00
2022-08-07T17:20:02.432Z,101289.47
2022-08-07T17:22:30.179Z,101294.63
2022-08-07T17:25:13.441Z,101288.75
2022-08-07T17:27:54.041Z,101292.81
2022-08-07T17:30:27.253Z,101290.81
2022-08-07T17:33:39.271Z,101297.31
2022-08-07T17:36:13.536Z,101288.66
2022-08-07T17:38:54.342Z,101292.50
2022-08-07T17:42:03.778Z,101291.91
2022-08-07T17:44:34.196Z,101294.41
2022-08-07T17:47:42.159Z,101297.47
2022-08-07T17:50:16.440Z,101300.03
2022-08-07T17:52:49.295Z,101299.75
2022-08-07T17:56:00.547Z,101295.91
2022-08-07T17:58:30.536Z,101300.59
2022-08-07T18:01:02.580Z,101303.63
2022-08-07T18:04:06.793Z,101298.84
2022-08-07T18:06:37.046Z,101287.59
2022-08-07T18:09:07.219Z,101299.41
2022-08-07T18:12:16.451Z,101304.38
2022-08-07T18:14:37.599Z,101301.75
2022-08-07T18:17:10.694Z,101303.38
2022-08-07T18:21:12.558Z,101299.59
2022-08-07T18:22:35.571Z,101312.59
2022-08-07T18:25:19.430Z,101311.16
2022-08-07T18:28:15.261Z,101322.88
2022-08-07T18:31:04.159Z,101319.91
2022-08-07T18:34:04.409Z,101321.28
2022-08-07T18:37:09.573Z,101325.28
2022-08-07T18:40:07.757Z,101336.75
2022-08-07T18:42:44.480Z,101337.13
2022-08-07T18:45:44.364Z,101344.44
2022-08-07T18:48:08.060Z,101340.41
2022-08-07T18:50:57.196Z,101351.78
2022-08-07T18:53:44.871Z,101351.88
2022-08-07T18:56:32.881Z,101356.09
2022-08-07T18:59:47.456Z,101358.22
2022-08-07T19:02:36.638Z,101359.75
2022-08-07T19:05:16.120Z,101366.63
2022-08-07T19:07:57.449Z,101364.31
2022-08-07T19:10:31.475Z,101370.75
2022-08-07T19:13:10.267Z,101364.44
2022-08-07T19:16:04.497Z,101380.00
2022-08-07T19:18:44.910Z,101367.25
2022-08-07T19:21:44.245Z,101379.03
2022-08-07T19:58:52.300Z,101421.53
2022-08-07T20:01:21.683Z,101426.13
2022-08-07T20:03:51.668Z,101424.22
2022-08-07T20:06:30.388Z,101426.47
2022-08-07T20:08:58.592Z,101427.34
2022-08-07T20:12:01.564Z,101414.69
2022-08-07T20:14:31.323Z,101421.09
2022-08-07T20:17:03.213Z,101412.94
2022-08-07T20:19:48.252Z,101428.53
2022-08-07T20:22:29.207Z,101429.22
2022-08-07T20:25:06.145Z,101430.91
2022-08-07T20:27:46.140Z,101433.41
2022-08-07T20:30:21.745Z,101436.94
2022-08-07T20:32:54.582Z,101439.81
2022-08-07T20:35:26.193Z,101443.34
2022-08-07T20:37:58.915Z,101433.13
2022-08-07T20:40:32.493Z,101434.63
2022-08-07T20:43:14.512Z,101446.50
2022-08-07T20:46:28.203Z,101452.72
2022-08-07T20:48:57.893Z,101449.88
2022-08-07T20:51:31.239Z,101446.50
2022-08-07T20:54:09.229Z,101447.31
2022-08-07T20:56:40.707Z,101456.66
2022-08-07T21:00:05.204Z,101455.81
2022-08-07T21:02:02.785Z,101462.31
2022-08-07T21:04:36.091Z,101454.94
2022-08-07T21:07:04.270Z,101457.72
2022-08-07T21:09:52.049Z,101447.97
2022-08-07T21:12:31.029Z,101465.84
2022-08-07T21:15:03.388Z,101468.66
2022-08-07T21:18:03.738Z,101467.75
2022-08-07T21:20:26.846Z,101444.56
2022-08-07T21:23:07.583Z,101463.09
2022-08-07T21:25:56.265Z,101453.84
2022-08-07T21:28:48.516Z,101455.16
2022-08-07T21:31:31.459Z,101461.13
2022-08-07T21:34:26.755Z,101470.03
2022-08-07T21:37:03.452Z,101471.66
2022-08-07T21:39:45.159Z,101480.47
2022-08-07T21:46:08.016Z,101483.81
2022-08-07T21:48:28.706Z,101468.66
2022-08-07T21:51:02.047Z,101476.13
2022-08-07T21:53:37.078Z,101489.66
2022-08-07T21:56:37.687Z,101487.47
2022-08-07T21:59:15.976Z,101488.88
2022-08-07T22:02:10.769Z,101494.81
2022-08-07T22:04:53.608Z,101488.56
2022-08-07T22:07:31.892Z,101493.13
2022-08-07T22:10:12.719Z,101499.78
2022-08-07T22:12:45.966Z,101499.84
2022-08-07T22:16:43.878Z,101497.38
2022-08-07T22:18:06.483Z,101498.97
2022-08-07T22:20:40.977Z,101495.47
2022-08-07T22:23:17.122Z,101497.34
2022-08-07T22:26:01.329Z,101494.72
2022-08-07T22:28:37.132Z,101505.25
2022-08-07T22:31:45.615Z,101495.28
2022-08-07T22:34:09.775Z,101503.84
2022-08-07T22:36:47.425Z,101494.75
2022-08-07T22:39:51.823Z,101507.78
2022-08-07T22:42:53.954Z,101502.38
2022-08-07T22:45:10.965Z,101498.31
2022-08-07T22:48:31.511Z,101488.94
2022-08-07T22:51:14.789Z,101495.38
2022-08-07T22:54:07.137Z,101499.03
2022-08-07T22:56:51.075Z,101506.69
2022-08-07T22:59:49.739Z,101511.44
2022-08-07T23:02:29.944Z,101510.19
2022-08-07T23:06:09.290Z,101502.19
2022-08-07T23:08:23.970Z,101508.78
2022-08-07T23:11:10.318Z,101508.28
2022-08-07T23:14:10.529Z,101512.06
2022-08-07T23:16:59.277Z,101511.06
2022-08-07T23:19:51.769Z,101515.63
2022-08-07T23:22:30.355Z,101514.06
2022-08-07T23:25:11.314Z,101518.34
2022-08-07T23:28:21.845Z,101523.53
2022-08-07T23:31:07.155Z,101499.56
2022-08-07T23:34:35.434Z,101523.75
2022-08-07T23:37:19.547Z,101519.81
2022-08-07T23:39:47.865Z,101521.31
2022-08-07T23:42:30.487Z,101524.13
2022-08-07T23:45:15.498Z,101523.41
2022-08-07T23:48:27.180Z,101528.25
2022-08-07T23:50:59.598Z,101525.97
2022-08-07T23:53:49.454Z,101516.06
2022-08-07T23:56:26.706Z,101517.75
2022-08-07T23:59:10.774Z,101523.41
